Khorramabad, Iran
Current Conditions -  °F | °C
As of 11:50 PM on Monday 20 Oct 2014 (Local Time) from OICK Reporting Station
Broken Clouds Broken Clouds  
Wind Chill: 57°   Ceiling: 9000
Heat Index: 57°   Visibility: 6mi
Dew Point: 54°   Wind: 7mph
Humidity: 88%   Direction: 280°W
Pressure: 30.03"   Gusts: NA
Location:  33.47°N, 48.35°E
Report Text: OICK 202050Z 28006KT 9999 SCT040 BKN090 14/12 Q1017
Loading
Personal Weather Stations






























Interactive Weather Map
Tropical Storm Tracking
New forecast layout! Learn more

10-Day Weather Forecast

Advertisements
Track Severe Weather on mobile